Time;durP1;ratioP1;P1;durP2;ratioP2;P2;SDS_P1;SDS_P2;PMS_P1;PMS_P2;Temp;Humidity;BMP_temperature;BMP_pressure;BME280_temperature;BME280_humidity;BME280_pressure;Samples;Min_cycle;Max_cycle;Signal;HPM_P1;HPM_P2
2021/11/23 00:02:25;;;;;;;76.13;44.22;;;;;;;;;;5040702;28;20029;-49
2021/11/23 00:04:51;;;;;;;71.45;41.95;;;;;;;;;;5036493;28;20029;-48
2021/11/23 00:07:20;;;;;;;80.63;44.60;;;;;;;;;;5051209;28;20559;-48
2021/11/23 00:09:46;;;;;;;76.65;43.45;;;;;;;;;;5040074;28;20068;-48
2021/11/23 00:12:12;;;;;;;96.65;50.38;;;;;;;;;;5043676;28;20053;-49
2021/11/23 00:14:41;;;;;;;78.03;44.83;;;;;;;;;;5042270;28;20032;-50
2021/11/23 00:17:07;;;;;;;75.22;44.05;;;;;;;;;;5035551;28;20134;-48
2021/11/23 00:19:33;;;;;;;87.63;50.03;;;;;;;;;;5034678;28;20022;-48
2021/11/23 00:22:02;;;;;;;70.18;39.45;;;;;;;;;;5037873;28;20033;-47
2021/11/23 00:24:28;;;;;;;70.57;40.58;;;;;;;;;;5048474;28;20028;-50
2021/11/23 00:26:54;;;;;;;78.40;45.85;;;;;;;;;;5035386;28;20030;-48
2021/11/23 00:29:20;;;;;;;78.53;43.33;;;;;;;;;;5037630;28;20469;-48
2021/11/23 00:31:46;;;;;;;84.10;46.53;;;;;;;;;;5033737;28;20033;-49
2021/11/23 00:34:12;;;;;;;73.05;43.88;;;;;;;;;;5039359;28;20029;-48
2021/11/23 00:36:39;;;;;;;81.93;47.20;;;;;;;;;;5039789;28;20388;-50
2021/11/23 00:39:05;;;;;;;77.75;46.03;;;;;;;;;;5034327;28;20414;-49
2021/11/23 00:41:31;;;;;;;72.18;42.72;;;;;;;;;;5034219;28;20025;-49
2021/11/23 00:43:58;;;;;;;77.57;44.42;;;;;;;;;;5033991;28;20035;-49
2021/11/23 00:46:24;;;;;;;72.07;41.50;;;;;;;;;;5034164;28;20493;-49
2021/11/23 00:48:50;;;;;;;74.82;43.40;;;;;;;;;;5034091;28;20025;-50
2021/11/23 00:51:16;;;;;;;72.00;42.53;;;;;;;;;;5033958;28;20046;-49
2021/11/23 00:53:42;;;;;;;72.82;41.28;;;;;;;;;;5034146;28;20049;-49
2021/11/23 00:56:08;;;;;;;74.93;42.58;;;;;;;;;;5033867;28;20068;-48
2021/11/23 00:58:37;;;;;;;71.25;41.97;;;;;;;;;;5053632;28;20036;-49
2021/11/23 01:01:04;;;;;;;79.85;44.70;;;;;;;;;;5053754;28;20021;-49
2021/11/23 01:03:32;;;;;;;68.43;41.40;;;;;;;;;;5053885;28;20025;-49
2021/11/23 01:06:04;;;;;;;78.60;45.17;;;;;;;;;;5053598;28;20031;-50
2021/11/23 01:08:37;;;;;;;77.55;44.67;;;;;;;;;;5053687;28;20154;-51
2021/11/23 01:11:03;;;;;;;77.28;43.05;;;;;;;;;;5053598;28;20052;-49
2021/11/23 01:13:29;;;;;;;73.85;43.42;;;;;;;;;;5053501;28;20028;-50
2021/11/23 01:15:57;;;;;;;74.93;41.35;;;;;;;;;;5053589;28;20029;-49
2021/11/23 01:18:24;;;;;;;82.25;45.50;;;;;;;;;;5053394;28;20044;-48
2021/11/23 01:20:50;;;;;;;79.72;46.35;;;;;;;;;;5053234;28;20021;-48
2021/11/23 01:23:17;;;;;;;73.22;42.90;;;;;;;;;;5053467;28;20509;-48
2021/11/23 01:25:43;;;;;;;82.70;46.72;;;;;;;;;;5053481;28;20074;-49
2021/11/23 01:28:09;;;;;;;80.15;44.92;;;;;;;;;;5053303;28;20465;-49
2021/11/23 01:30:36;;;;;;;73.82;42.80;;;;;;;;;;5053202;28;20028;-49
2021/11/23 01:33:02;;;;;;;72.55;42.97;;;;;;;;;;5053502;28;20051;-49
2021/11/23 01:35:28;;;;;;;74.18;43.78;;;;;;;;;;5053243;28;20024;-49
2021/11/23 01:37:55;;;;;;;75.45;44.40;;;;;;;;;;5053410;28;20033;-49
2021/11/23 01:40:21;;;;;;;81.60;44.33;;;;;;;;;;5053551;28;20120;-49
2021/11/23 01:42:49;;;;;;;74.53;42.60;;;;;;;;;;5053129;28;20021;-49
2021/11/23 01:45:15;;;;;;;77.65;43.30;;;;;;;;;;5053380;28;20028;-49
2021/11/23 01:47:41;;;;;;;78.05;43.22;;;;;;;;;;5053138;28;20071;-49
2021/11/23 01:50:09;;;;;;;84.35;45.53;;;;;;;;;;5053125;28;20028;-49
2021/11/23 01:52:35;;;;;;;79.00;43.53;;;;;;;;;;5053005;28;20056;-49
2021/11/23 01:55:04;;;;;;;74.82;43.75;;;;;;;;;;5053065;28;20051;-49
2021/11/23 01:57:30;;;;;;;76.28;43.65;;;;;;;;;;5053238;28;20037;-49
2021/11/23 01:59:57;;;;;;;74.63;43.47;;;;;;;;;;5053192;28;20174;-49
2021/11/23 02:02:23;;;;;;;73.72;42.70;;;;;;;;;;5053093;28;20017;-49
2021/11/23 02:04:49;;;;;;;79.30;43.75;;;;;;;;;;5052955;28;20028;-49
2021/11/23 02:07:17;;;;;;;72.22;41.95;;;;;;;;;;5053131;28;20384;-50
2021/11/23 02:09:44;;;;;;;72.47;42.13;;;;;;;;;;5053000;28;20017;-49
2021/11/23 02:12:12;;;;;;;76.18;43.88;;;;;;;;;;5052797;28;20052;-49
2021/11/23 02:14:39;;;;;;;81.10;44.08;;;;;;;;;;5052803;28;20036;-50
2021/11/23 02:17:05;;;;;;;76.43;43.17;;;;;;;;;;5052945;28;20029;-49
2021/11/23 02:19:34;;;;;;;73.80;41.50;;;;;;;;;;5052937;28;20025;-49
2021/11/23 02:22:00;;;;;;;70.78;42.53;;;;;;;;;;5052962;28;20021;-49
2021/11/23 02:24:27;;;;;;;77.03;46.58;;;;;;;;;;5052772;28;20025;-48
2021/11/23 02:26:53;;;;;;;70.60;42.38;;;;;;;;;;5052684;28;20029;-49
2021/11/23 02:29:22;;;;;;;72.75;42.35;;;;;;;;;;5052882;28;20025;-49
2021/11/23 02:31:48;;;;;;;74.85;42.22;;;;;;;;;;5055169;28;20047;-49
2021/11/23 02:34:14;;;;;;;79.03;44.67;;;;;;;;;;5056555;28;20116;-49
2021/11/23 02:36:41;;;;;;;72.72;43.33;;;;;;;;;;5056372;28;20031;-49
2021/11/23 02:39:07;;;;;;;67.68;40.15;;;;;;;;;;5056643;28;20070;-49
2021/11/23 02:41:35;;;;;;;77.80;42.40;;;;;;;;;;5056321;28;20032;-49
2021/11/23 02:44:01;;;;;;;72.50;41.25;;;;;;;;;;5056695;28;20029;-49
2021/11/23 02:46:27;;;;;;;74.43;42.63;;;;;;;;;;5056376;28;20528;-50
2021/11/23 02:48:53;;;;;;;76.32;41.90;;;;;;;;;;5056208;28;20028;-49
2021/11/23 02:51:22;;;;;;;67.18;39.88;;;;;;;;;;5055978;28;20157;-48
2021/11/23 02:53:49;;;;;;;65.53;38.70;;;;;;;;;;5056304;28;20032;-49
2021/11/23 02:56:16;;;;;;;67.22;36.58;;;;;;;;;;5056257;28;20044;-49
2021/11/23 02:58:51;;;;;;;70.70;39.28;;;;;;;;;;5056352;28;20065;-49
2021/11/23 03:01:19;;;;;;;64.93;36.70;;;;;;;;;;5056127;28;20025;-50
2021/11/23 03:03:47;;;;;;;67.40;37.28;;;;;;;;;;5056352;28;20045;-49
2021/11/23 03:06:16;;;;;;;66.95;37.72;;;;;;;;;;5055921;28;20067;-49
2021/11/23 03:08:42;;;;;;;65.85;37.63;;;;;;;;;;5056102;28;20021;-49
2021/11/23 03:11:09;;;;;;;69.78;37.95;;;;;;;;;;5055787;28;20029;-50
2021/11/23 03:13:35;;;;;;;64.47;36.88;;;;;;;;;;5055959;28;20013;-49
2021/11/23 03:16:01;;;;;;;70.65;38.33;;;;;;;;;;5056035;28;20024;-48
2021/11/23 03:18:30;;;;;;;66.35;37.83;;;;;;;;;;5055687;28;20432;-49
2021/11/23 03:20:56;;;;;;;65.88;38.60;;;;;;;;;;5055996;28;20080;-49
2021/11/23 03:23:22;;;;;;;71.43;37.00;;;;;;;;;;5054681;28;20061;-49
2021/11/23 03:25:48;;;;;;;62.45;35.60;;;;;;;;;;5055619;28;20021;-49
2021/11/23 03:28:15;;;;;;;65.20;37.00;;;;;;;;;;5055639;28;20155;-49
2021/11/23 03:30:41;;;;;;;61.72;36.15;;;;;;;;;;5054242;28;20404;-49
2021/11/23 03:33:10;;;;;;;63.85;35.88;;;;;;;;;;5055477;28;20025;-49
2021/11/23 03:35:43;;;;;;;68.32;36.78;;;;;;;;;;5055500;28;20032;-48
2021/11/23 03:38:11;;;;;;;67.68;38.70;;;;;;;;;;5055451;28;20064;-49
2021/11/23 03:40:40;;;;;;;66.00;37.38;;;;;;;;;;5055311;28;20028;-49
2021/11/23 03:43:07;;;;;;;67.85;37.70;;;;;;;;;;5055136;28;20024;-49
2021/11/23 03:45:34;;;;;;;69.60;39.75;;;;;;;;;;5055253;28;20374;-49
2021/11/23 03:48:00;;;;;;;67.95;39.03;;;;;;;;;;5055197;28;20115;-48
2021/11/23 03:50:28;;;;;;;74.07;39.97;;;;;;;;;;5055371;28;20052;-49
2021/11/23 03:52:54;;;;;;;69.22;38.83;;;;;;;;;;5054995;28;20049;-49
2021/11/23 03:55:21;;;;;;;68.57;38.92;;;;;;;;;;5055641;28;20033;-49
2021/11/23 03:57:48;;;;;;;72.22;39.00;;;;;;;;;;5055311;28;20041;-49
2021/11/23 04:00:15;;;;;;;71.45;39.05;;;;;;;;;;5055213;28;20025;-49
2021/11/23 04:02:44;;;;;;;71.65;38.05;;;;;;;;;;5055244;28;20021;-49
2021/11/23 04:05:12;;;;;;;64.47;36.97;;;;;;;;;;5054911;28;20059;-49
2021/11/23 04:07:41;;;;;;;64.05;35.40;;;;;;;;;;5054847;28;20033;-49
2021/11/23 04:10:11;;;;;;;66.30;37.70;;;;;;;;;;5054774;28;20031;-49
2021/11/23 04:12:37;;;;;;;70.97;37.75;;;;;;;;;;5054791;28;20025;-49
2021/11/23 04:15:04;;;;;;;65.80;36.20;;;;;;;;;;5054961;28;20021;-49
2021/11/23 04:17:31;;;;;;;68.70;36.85;;;;;;;;;;5054601;28;20039;-48
2021/11/23 04:19:57;;;;;;;65.68;36.80;;;;;;;;;;5054679;28;20024;-49
2021/11/23 04:22:23;;;;;;;66.53;36.53;;;;;;;;;;5054687;28;20037;-49
2021/11/23 04:24:49;;;;;;;63.80;36.30;;;;;;;;;;5054506;28;20017;-49
2021/11/23 04:27:15;;;;;;;64.88;36.03;;;;;;;;;;5054472;28;20536;-49
2021/11/23 04:29:41;;;;;;;64.38;35.50;;;;;;;;;;5054681;28;20024;-49
2021/11/23 04:32:08;;;;;;;61.72;33.88;;;;;;;;;;5054414;28;20385;-48
2021/11/23 04:34:34;;;;;;;62.45;34.10;;;;;;;;;;5054338;28;20362;-48
2021/11/23 04:37:00;;;;;;;72.57;36.53;;;;;;;;;;5054147;28;20473;-48
2021/11/23 04:39:26;;;;;;;63.63;35.63;;;;;;;;;;5054116;28;20055;-49
2021/11/23 04:41:52;;;;;;;64.65;35.58;;;;;;;;;;5054294;28;20033;-48
2021/11/23 04:44:18;;;;;;;66.22;36.38;;;;;;;;;;5054111;28;20029;-49
2021/11/23 04:46:47;;;;;;;70.72;36.13;;;;;;;;;;5053902;28;20543;-49
2021/11/23 04:49:13;;;;;;;62.88;35.95;;;;;;;;;;5054161;28;20037;-49
2021/11/23 04:51:39;;;;;;;68.43;36.90;;;;;;;;;;5053657;28;20037;-49
2021/11/23 04:54:08;;;;;;;66.97;37.17;;;;;;;;;;5052275;28;20474;-49
2021/11/23 04:56:34;;;;;;;67.55;35.28;;;;;;;;;;5054277;28;20417;-49
2021/11/23 04:59:00;;;;;;;66.32;35.67;;;;;;;;;;5053868;28;20033;-49
2021/11/23 05:01:26;;;;;;;64.53;37.00;;;;;;;;;;5053663;28;21458;-49
2021/11/23 05:03:55;;;;;;;63.28;34.95;;;;;;;;;;5033844;28;20032;-49
2021/11/23 05:06:21;;;;;;;59.63;32.58;;;;;;;;;;5033816;28;20096;-49
2021/11/23 05:08:47;;;;;;;56.13;33.17;;;;;;;;;;5033941;28;20022;-49
2021/11/23 05:11:16;;;;;;;60.83;32.72;;;;;;;;;;5033866;28;20028;-49
2021/11/23 05:13:44;;;;;;;69.32;34.38;;;;;;;;;;5033844;28;20072;-48
2021/11/23 05:16:10;;;;;;;64.22;33.63;;;;;;;;;;5033624;28;20056;-49
2021/11/23 05:18:36;;;;;;;68.00;34.55;;;;;;;;;;5033471;28;20127;-49
2021/11/23 05:21:02;;;;;;;61.92;33.88;;;;;;;;;;5033521;28;20079;-48
2021/11/23 05:23:28;;;;;;;64.30;34.95;;;;;;;;;;5033647;28;20088;-49
2021/11/23 05:25:56;;;;;;;72.70;35.90;;;;;;;;;;5033731;28;20450;-49
2021/11/23 05:28:25;;;;;;;66.22;33.55;;;;;;;;;;5033561;28;20026;-49
2021/11/23 05:30:52;;;;;;;66.70;34.38;;;;;;;;;;5033613;28;20084;-48
2021/11/23 05:33:18;;;;;;;61.28;32.85;;;;;;;;;;5033457;28;20022;-49
2021/11/23 05:35:49;;;;;;;62.38;33.50;;;;;;;;;;5033405;28;20038;-49
2021/11/23 05:38:16;;;;;;;57.50;31.77;;;;;;;;;;5031658;28;20045;-49
2021/11/23 05:40:43;;;;;;;61.22;33.05;;;;;;;;;;5033304;28;20021;-49
2021/11/23 05:43:10;;;;;;;58.03;31.38;;;;;;;;;;5033466;28;20529;-48
2021/11/23 05:45:36;;;;;;;60.97;33.05;;;;;;;;;;5033254;28;20061;-49
2021/11/23 05:48:02;;;;;;;63.05;31.77;;;;;;;;;;5033376;28;20029;-48
2021/11/23 05:50:28;;;;;;;55.78;30.75;;;;;;;;;;5033306;28;20199;-49
2021/11/23 05:52:54;;;;;;;56.25;30.10;;;;;;;;;;5032937;28;20054;-48
2021/11/23 05:55:22;;;;;;;62.22;30.15;;;;;;;;;;5033553;28;20033;-48
2021/11/23 05:57:49;;;;;;;55.30;32.03;;;;;;;;;;5033502;28;20030;-49
2021/11/23 06:00:15;;;;;;;66.45;34.83;;;;;;;;;;5033396;28;20034;-49
2021/11/23 06:02:41;;;;;;;73.47;35.67;;;;;;;;;;5039940;28;20021;-50
2021/11/23 06:05:07;;;;;;;88.05;43.72;;;;;;;;;;5053759;28;20104;-50
2021/11/23 06:07:33;;;;;;;83.68;41.75;;;;;;;;;;5057145;28;20025;-47
2021/11/23 06:10:00;;;;;;;93.32;45.17;;;;;;;;;;5057145;28;20393;-49
2021/11/23 06:12:29;;;;;;;98.40;45.95;;;;;;;;;;5057033;28;20107;-49
2021/11/23 06:14:55;;;;;;;73.78;37.47;;;;;;;;;;5057001;28;20025;-49
2021/11/23 06:17:23;;;;;;;74.45;35.35;;;;;;;;;;5056853;28;20025;-49
2021/11/23 06:19:50;;;;;;;64.90;32.40;;;;;;;;;;5056992;28;20066;-49
2021/11/23 06:22:16;;;;;;;66.40;32.72;;;;;;;;;;5056781;28;20111;-50
2021/11/23 06:24:42;;;;;;;72.30;35.30;;;;;;;;;;5056695;28;20032;-50
2021/11/23 06:27:08;;;;;;;75.50;36.10;;;;;;;;;;5056836;28;20507;-48
2021/11/23 06:29:34;;;;;;;78.15;33.83;;;;;;;;;;5056721;28;20063;-50
2021/11/23 06:32:01;;;;;;;82.18;37.38;;;;;;;;;;5056541;28;20019;-50
2021/11/23 06:34:27;;;;;;;79.47;35.55;;;;;;;;;;5056577;28;20047;-50
2021/11/23 06:36:53;;;;;;;72.10;33.35;;;;;;;;;;5056455;28;20017;-49
2021/11/23 06:39:19;;;;;;;61.63;28.10;;;;;;;;;;5056672;28;20334;-50
2021/11/23 06:41:46;;;;;;;56.15;26.42;;;;;;;;;;5056426;28;20017;-50
2021/11/23 06:44:14;;;;;;;52.65;26.27;;;;;;;;;;5056482;28;20035;-50
2021/11/23 06:46:40;;;;;;;45.97;24.80;;;;;;;;;;5056222;28;20021;-49
2021/11/23 06:49:06;;;;;;;48.40;26.38;;;;;;;;;;5056354;28;20036;-50
2021/11/23 06:51:33;;;;;;;49.92;27.00;;;;;;;;;;5055955;28;20051;-50
2021/11/23 06:53:59;;;;;;;37.60;22.42;;;;;;;;;;5056346;28;20111;-50
2021/11/23 06:56:31;;;;;;;38.55;22.65;;;;;;;;;;5056138;28;20500;-50
2021/11/23 06:58:57;;;;;;;39.28;23.15;;;;;;;;;;5055996;28;20063;-50
2021/11/23 07:01:23;;;;;;;47.45;27.27;;;;;;;;;;5056041;28;20032;-49
2021/11/23 07:03:49;;;;;;;41.13;23.17;;;;;;;;;;5056070;28;20052;-50
2021/11/23 07:06:16;;;;;;;38.42;22.77;;;;;;;;;;5056007;28;20535;-48
2021/11/23 07:08:42;;;;;;;44.38;25.30;;;;;;;;;;5056039;28;20025;-49
2021/11/23 07:11:12;;;;;;;47.78;26.00;;;;;;;;;;5056071;28;20090;-50
2021/11/23 07:13:38;;;;;;;40.42;23.08;;;;;;;;;;5056051;28;20021;-49
2021/11/23 07:16:04;;;;;;;47.47;26.98;;;;;;;;;;5055806;28;20021;-50
2021/11/23 07:18:30;;;;;;;43.67;23.83;;;;;;;;;;5055175;28;20467;-49
2021/11/23 07:20:57;;;;;;;47.58;27.73;;;;;;;;;;5055645;28;20036;-49
2021/11/23 07:23:24;;;;;;;39.90;22.38;;;;;;;;;;5055721;28;20134;-48
2021/11/23 07:25:50;;;;;;;43.10;23.15;;;;;;;;;;5055725;28;20488;-49
2021/11/23 07:28:17;;;;;;;36.75;21.40;;;;;;;;;;5055587;28;20029;-49
2021/11/23 07:30:43;;;;;;;41.45;23.17;;;;;;;;;;5055652;28;20392;-49
2021/11/23 07:33:09;;;;;;;35.90;20.83;;;;;;;;;;5055594;28;20031;-48
2021/11/23 07:35:36;;;;;;;49.08;27.65;;;;;;;;;;5055427;28;20123;-48
2021/11/23 07:38:02;;;;;;;45.00;26.15;;;;;;;;;;5055158;28;20366;-49
2021/11/23 07:40:28;;;;;;;37.60;21.92;;;;;;;;;;5055386;28;20017;-49
2021/11/23 07:42:54;;;;;;;29.70;18.50;;;;;;;;;;5055239;28;20100;-50
2021/11/23 07:45:21;;;;;;;25.60;18.23;;;;;;;;;;5055273;28;20477;-48
2021/11/23 07:47:47;;;;;;;24.10;16.17;;;;;;;;;;5055032;28;20021;-49
2021/11/23 07:50:14;;;;;;;22.00;15.85;;;;;;;;;;5055052;28;20021;-49
2021/11/23 07:52:40;;;;;;;23.35;16.40;;;;;;;;;;5055013;28;20505;-49
2021/11/23 07:55:07;;;;;;;23.75;16.80;;;;;;;;;;5055233;28;20075;-49
2021/11/23 07:57:33;;;;;;;21.92;14.65;;;;;;;;;;5055210;28;20060;-49
2021/11/23 08:00:02;;;;;;;24.05;14.02;;;;;;;;;;5055318;28;20078;-47
2021/11/23 08:02:28;;;;;;;17.70;12.85;;;;;;;;;;5055106;28;20023;-49
2021/11/23 08:04:57;;;;;;;18.35;13.85;;;;;;;;;;5054906;28;20017;-50
2021/11/23 08:07:27;;;;;;;20.50;13.68;;;;;;;;;;5054758;28;20025;-49
2021/11/23 08:09:53;;;;;;;20.20;13.63;;;;;;;;;;5055066;28;20334;-48
2021/11/23 08:12:19;;;;;;;15.93;12.25;;;;;;;;;;5054764;28;20074;-49
2021/11/23 08:14:45;;;;;;;19.75;13.13;;;;;;;;;;5055022;28;20116;-48
2021/11/23 08:17:14;;;;;;;18.38;13.20;;;;;;;;;;5054519;28;20096;-48
2021/11/23 08:19:40;;;;;;;17.83;13.57;;;;;;;;;;5054412;28;20036;-47
2021/11/23 08:22:06;;;;;;;17.88;13.45;;;;;;;;;;5054509;28;20032;-47
2021/11/23 08:24:32;;;;;;;17.27;13.50;;;;;;;;;;5053185;28;20032;-47
2021/11/23 08:26:59;;;;;;;18.42;13.25;;;;;;;;;;5054514;28;20380;-48
2021/11/23 08:29:26;;;;;;;15.27;12.15;;;;;;;;;;5053269;28;20036;-49
2021/11/23 08:31:53;;;;;;;15.63;11.65;;;;;;;;;;5054421;28;20112;-49
2021/11/23 08:34:23;;;;;;;12.60;10.82;;;;;;;;;;5054625;28;20461;-47
2021/11/23 08:36:50;;;;;;;14.07;11.98;;;;;;;;;;5054256;28;20025;-51
2021/11/23 08:39:16;;;;;;;15.00;11.35;;;;;;;;;;5054130;28;20041;-50
2021/11/23 08:41:43;;;;;;;14.80;11.77;;;;;;;;;;5054261;28;20079;-49
2021/11/23 08:44:09;;;;;;;15.23;11.20;;;;;;;;;;5054185;28;20025;-49
2021/11/23 08:46:35;;;;;;;18.50;10.93;;;;;;;;;;5054351;28;20017;-47
2021/11/23 08:49:03;;;;;;;12.55;10.40;;;;;;;;;;5054094;28;20417;-48
2021/11/23 08:51:32;;;;;;;14.00;10.27;;;;;;;;;;5053725;28;20044;-49
2021/11/23 08:53:59;;;;;;;13.95;10.32;;;;;;;;;;5054196;28;20027;-47
2021/11/23 08:56:29;;;;;;;15.32;9.63;;;;;;;;;;5054020;28;20032;-49
2021/11/23 08:58:57;;;;;;;12.93;9.32;;;;;;;;;;5054209;28;20055;-47
2021/11/23 09:01:26;;;;;;;12.25;9.43;;;;;;;;;;5053926;28;20021;-47
2021/11/23 09:03:53;;;;;;;20.88;11.23;;;;;;;;;;5053939;28;20112;-50
2021/11/23 09:06:20;;;;;;;12.73;11.18;;;;;;;;;;5053898;28;20033;-51
2021/11/23 09:08:55;;;;;;;20.70;13.18;;;;;;;;;;5054038;28;20021;-51
2021/11/23 09:11:23;;;;;;;22.33;12.35;;;;;;;;;;5053864;28;20449;-50
2021/11/23 09:13:49;;;;;;;11.88;10.32;;;;;;;;;;5053766;28;20021;-48
2021/11/23 09:16:16;;;;;;;16.58;10.32;;;;;;;;;;5053578;28;20491;-50
2021/11/23 09:18:44;;;;;;;14.32;9.68;;;;;;;;;;5053441;28;20076;-48
2021/11/23 09:21:10;;;;;;;15.27;12.05;;;;;;;;;;5053517;28;20021;-49
2021/11/23 09:23:37;;;;;;;15.43;12.25;;;;;;;;;;5053684;28;20052;-48
2021/11/23 09:26:03;;;;;;;13.93;11.57;;;;;;;;;;5053611;28;20024;-50
2021/11/23 09:28:29;;;;;;;16.30;11.02;;;;;;;;;;5053533;28;20101;-48
2021/11/23 09:30:55;;;;;;;13.00;10.65;;;;;;;;;;5053363;28;20423;-50
2021/11/23 09:33:22;;;;;;;16.30;11.88;;;;;;;;;;5053354;28;20040;-48
2021/11/23 09:35:48;;;;;;;30.58;25.13;;;;;;;;;;5053260;28;20045;-49
2021/11/23 09:38:14;;;;;;;18.13;14.05;;;;;;;;;;5053225;28;20033;-49
2021/11/23 09:40:41;;;;;;;32.42;22.70;;;;;;;;;;5052886;28;20023;-49
2021/11/23 09:43:09;;;;;;;15.52;10.25;;;;;;;;;;5053157;28;20029;-49
2021/11/23 09:45:36;;;;;;;31.77;24.35;;;;;;;;;;5053087;28;20021;-47
2021/11/23 09:48:06;;;;;;;18.58;15.40;;;;;;;;;;5052970;28;20017;-49
2021/11/23 09:50:32;;;;;;;18.83;14.30;;;;;;;;;;5053099;28;20075;-51
2021/11/23 09:52:58;;;;;;;25.75;17.85;;;;;;;;;;5052066;28;20045;-48
2021/11/23 09:55:24;;;;;;;25.10;17.83;;;;;;;;;;5053111;28;20060;-50
2021/11/23 09:57:51;;;;;;;19.83;14.70;;;;;;;;;;5052980;28;20032;-49
2021/11/23 10:00:23;;;;;;;30.02;20.73;;;;;;;;;;5053051;28;20082;-54
2021/11/23 10:02:49;;;;;;;18.42;14.00;;;;;;;;;;5052851;28;20079;-51
2021/11/23 10:05:15;;;;;;;40.13;24.52;;;;;;;;;;5052975;28;20035;-50
2021/11/23 10:07:43;;;;;;;48.83;32.00;;;;;;;;;;5053089;28;20024;-51
2021/11/23 10:10:19;;;;;;;34.25;22.60;;;;;;;;;;5053036;28;20025;-49
2021/11/23 10:12:53;;;;;;;33.35;21.38;;;;;;;;;;5053045;28;20096;-48
2021/11/23 10:15:19;;;;;;;41.95;21.48;;;;;;;;;;5052536;28;20028;-47
2021/11/23 10:17:47;;;;;;;21.33;14.05;;;;;;;;;;5052282;28;20044;-47
2021/11/23 10:20:26;;;;;;;20.00;14.13;;;;;;;;;;5051398;28;20027;-46
2021/11/23 10:22:52;;;;;;;35.47;23.83;;;;;;;;;;5049961;28;20545;-47
2021/11/23 10:25:18;;;;;;;19.92;14.35;;;;;;;;;;5052007;28;20079;-48
2021/11/23 10:27:47;;;;;;;39.15;24.23;;;;;;;;;;5051662;28;20032;-48
2021/11/23 10:30:13;;;;;;;58.47;32.22;;;;;;;;;;5051706;28;20028;-45
2021/11/23 10:32:51;;;;;;;69.75;40.83;;;;;;;;;;5051249;28;20035;-46
2021/11/23 10:35:19;;;;;;;33.83;20.13;;;;;;;;;;5049595;28;20024;-47
2021/11/23 10:37:46;;;;;;;33.13;22.00;;;;;;;;;;5051673;28;20040;-46
2021/11/23 10:40:12;;;;;;;32.28;18.17;;;;;;;;;;5052810;28;20452;-49
2021/11/23 10:42:40;;;;;;;28.58;16.20;;;;;;;;;;5052511;28;20096;-46
2021/11/23 10:45:10;;;;;;;25.60;14.90;;;;;;;;;;5052863;28;20396;-47
2021/11/23 10:47:38;;;;;;;21.75;14.20;;;;;;;;;;5052633;28;20088;-49
2021/11/23 10:50:08;;;;;;;23.90;14.95;;;;;;;;;;5052486;28;20018;-46
2021/11/23 10:52:38;;;;;;;48.38;25.30;;;;;;;;;;5053867;28;20409;-47
2021/11/23 10:55:23;;;;;;;30.20;17.52;;;;;;;;;;5056201;28;20021;-48
2021/11/23 10:57:52;;;;;;;40.30;21.70;;;;;;;;;;5056096;28;20104;-47
2021/11/23 11:00:18;;;;;;;16.83;10.95;;;;;;;;;;5056217;28;20028;-48
2021/11/23 11:02:44;;;;;;;21.73;12.00;;;;;;;;;;5056191;28;20021;-46
2021/11/23 11:05:17;;;;;;;24.52;12.25;;;;;;;;;;5055997;28;20032;-48
2021/11/23 11:07:49;;;;;;;25.15;13.48;;;;;;;;;;5056026;28;20412;-46
2021/11/23 11:10:15;;;;;;;29.08;13.52;;;;;;;;;;5055978;28;20457;-46
2021/11/23 11:12:49;;;;;;;23.98;15.88;;;;;;;;;;5056101;28;20020;-48
2021/11/23 11:15:17;;;;;;;22.88;14.18;;;;;;;;;;5054705;28;20031;-48
2021/11/23 11:17:47;;;;;;;25.67;12.30;;;;;;;;;;5055969;28;20480;-48
2021/11/23 11:20:31;;;;;;;20.08;12.13;;;;;;;;;;5055943;28;20071;-48
2021/11/23 11:23:03;;;;;;;23.77;14.05;;;;;;;;;;5055655;28;20025;-47
2021/11/23 11:25:49;;;;;;;34.15;22.13;;;;;;;;;;5055719;28;20028;-48
2021/11/23 11:28:18;;;;;;;32.25;20.02;;;;;;;;;;5055641;28;20025;-48
2021/11/23 11:30:51;;;;;;;30.80;16.80;;;;;;;;;;5055586;28;20032;-47
2021/11/23 11:33:23;;;;;;;61.72;32.25;;;;;;;;;;5055437;28;20024;-47
2021/11/23 11:35:51;;;;;;;47.38;29.73;;;;;;;;;;5055608;28;20056;-47
2021/11/23 11:38:26;;;;;;;26.38;17.60;;;;;;;;;;5055414;28;20470;-46
2021/11/23 11:40:55;;;;;;;21.10;15.73;;;;;;;;;;5055455;28;20102;-48
2021/11/23 11:43:21;;;;;;;44.80;26.80;;;;;;;;;;5055390;28;20139;-48
2021/11/23 11:45:48;;;;;;;50.53;29.02;;;;;;;;;;5055181;28;20029;-53
2021/11/23 11:48:33;;;;;;;36.70;17.95;;;;;;;;;;5055189;28;20029;-47
2021/11/23 11:51:02;;;;;;;64.10;36.03;;;;;;;;;;5055014;28;20033;-50
2021/11/23 11:53:32;;;;;;;51.20;33.33;;;;;;;;;;5054949;28;20035;-51
2021/11/23 11:55:58;;;;;;;47.47;26.70;;;;;;;;;;5055034;28;20032;-53
2021/11/23 11:58:44;;;;;;;36.92;19.98;;;;;;;;;;5054884;28;20404;-47
2021/11/23 12:01:33;;;;;;;35.42;19.10;;;;;;;;;;5055039;28;20111;-48
2021/11/23 12:04:04;;;;;;;37.10;21.50;;;;;;;;;;5052890;28;20021;-50
2021/11/23 12:06:49;;;;;;;28.48;16.42;;;;;;;;;;5054089;28;20061;-46
2021/11/23 12:09:26;;;;;;;20.40;12.88;;;;;;;;;;5054100;28;20036;-49
2021/11/23 12:11:52;;;;;;;23.30;15.25;;;;;;;;;;5053597;28;20393;-50
2021/11/23 12:14:22;;;;;;;23.45;14.02;;;;;;;;;;5054821;28;20021;-47
2021/11/23 12:16:53;;;;;;;26.67;17.27;;;;;;;;;;5054785;28;20077;-49
2021/11/23 12:19:29;;;;;;;20.58;14.43;;;;;;;;;;5054582;28;20035;-46
2021/11/23 12:21:57;;;;;;;31.17;16.80;;;;;;;;;;5054582;28;20055;-50
2021/11/23 12:24:30;;;;;;;21.00;12.80;;;;;;;;;;5054703;28;20074;-47
2021/11/23 12:26:57;;;;;;;31.27;14.40;;;;;;;;;;5054808;28;20025;-49
2021/11/23 12:29:27;;;;;;;31.85;14.00;;;;;;;;;;5054644;28;20100;-49
2021/11/23 12:31:54;;;;;;;39.58;17.52;;;;;;;;;;5054559;28;20169;-47
2021/11/23 12:34:20;;;;;;;43.88;17.02;;;;;;;;;;5054485;28;20480;-49
2021/11/23 12:36:49;;;;;;;44.40;16.45;;;;;;;;;;5054459;28;20051;-50
2021/11/23 12:39:18;;;;;;;35.28;16.25;;;;;;;;;;5054316;28;20529;-49
2021/11/23 12:41:45;;;;;;;47.65;18.70;;;;;;;;;;5054399;28;20024;-49
2021/11/23 12:44:22;;;;;;;26.42;13.57;;;;;;;;;;5054378;28;20033;-50
2021/11/23 12:46:58;;;;;;;27.20;14.73;;;;;;;;;;5054135;28;20372;-49
2021/11/23 12:49:27;;;;;;;18.95;11.45;;;;;;;;;;5054276;28;20031;-49
2021/11/23 12:51:54;;;;;;;22.88;12.73;;;;;;;;;;5054081;28;20048;-49
2021/11/23 12:54:26;;;;;;;25.45;13.93;;;;;;;;;;5054305;28;20090;-50
2021/11/23 12:56:58;;;;;;;25.02;13.38;;;;;;;;;;5054320;28;20017;-50
2021/11/23 12:59:33;;;;;;;27.70;13.82;;;;;;;;;;5053872;28;20035;-50
2021/11/23 13:02:01;;;;;;;20.58;11.70;;;;;;;;;;5054339;28;20547;-49
2021/11/23 13:04:38;;;;;;;26.73;13.70;;;;;;;;;;5054113;28;20033;-50
2021/11/23 13:07:05;;;;;;;22.15;13.15;;;;;;;;;;5052429;28;20032;-49
2021/11/23 13:09:46;;;;;;;26.95;14.48;;;;;;;;;;5053804;28;20049;-49
2021/11/23 13:12:15;;;;;;;22.85;13.15;;;;;;;;;;5053918;28;20472;-49
2021/11/23 13:14:50;;;;;;;21.15;12.98;;;;;;;;;;5053411;28;20378;-50
2021/11/23 13:17:16;;;;;;;22.42;13.07;;;;;;;;;;5053747;28;20017;-47
2021/11/23 13:19:55;;;;;;;28.42;13.00;;;;;;;;;;5053377;28;20033;-49
2021/11/23 13:22:21;;;;;;;29.88;13.57;;;;;;;;;;5052976;28;20036;-48
2021/11/23 13:24:47;;;;;;;19.95;11.68;;;;;;;;;;5052997;28;20013;-50
2021/11/23 13:27:15;;;;;;;26.38;16.60;;;;;;;;;;5052949;28;20024;-49
2021/11/23 13:29:45;;;;;;;38.38;19.30;;;;;;;;;;5051781;28;20028;-48
2021/11/23 13:32:12;;;;;;;26.42;15.10;;;;;;;;;;5053353;28;20369;-48
2021/11/23 13:34:38;;;;;;;34.35;16.95;;;;;;;;;;5051887;28;20025;-52
2021/11/23 13:37:04;;;;;;;25.60;12.85;;;;;;;;;;5051956;28;20017;-52
2021/11/23 13:39:30;;;;;;;32.15;16.00;;;;;;;;;;5051796;28;20033;-51
2021/11/23 13:41:58;;;;;;;25.85;13.50;;;;;;;;;;5051909;28;20029;-54
2021/11/23 13:44:25;;;;;;;22.27;12.68;;;;;;;;;;5052201;28;20081;-52
2021/11/23 13:46:54;;;;;;;17.33;11.57;;;;;;;;;;5051868;28;20066;-50
2021/11/23 13:49:29;;;;;;;16.42;11.13;;;;;;;;;;5051913;28;20044;-50
2021/11/23 13:52:12;;;;;;;25.85;16.17;;;;;;;;;;5049466;28;20128;-50
2021/11/23 13:54:58;;;;;;;28.83;15.02;;;;;;;;;;5051613;28;20079;-49
2021/11/23 13:57:35;;;;;;;29.20;15.50;;;;;;;;;;5049633;28;20017;-50
2021/11/23 14:00:08;;;;;;;19.42;13.38;;;;;;;;;;5049067;28;20470;-49
2021/11/23 14:02:45;;;;;;;21.83;14.30;;;;;;;;;;5052071;28;20060;-49
2021/11/23 14:05:11;;;;;;;27.35;15.38;;;;;;;;;;5049740;28;20028;-49
2021/11/23 14:07:54;;;;;;;21.40;13.40;;;;;;;;;;5023379;28;20030;-49
2021/11/23 14:10:26;;;;;;;22.02;14.43;;;;;;;;;;5021889;28;20094;-49
2021/11/23 14:12:58;;;;;;;22.85;13.27;;;;;;;;;;5022888;28;20042;-48
2021/11/23 14:15:25;;;;;;;23.13;14.90;;;;;;;;;;5021648;28;20021;-48
2021/11/23 14:17:57;;;;;;;23.60;15.50;;;;;;;;;;5021943;28;20017;-48
2021/11/23 14:20:50;;;;;;;25.00;15.35;;;;;;;;;;5021661;28;20062;-47
2021/11/23 14:23:18;;;;;;;31.10;17.23;;;;;;;;;;5021589;28;20052;-47